Time;durP1;ratioP1;P1;durP2;ratioP2;P2;SDS_P1;SDS_P2;PMS_P1;PMS_P2;Temp;Humidity;BMP_temperature;BMP_pressure;BME280_temperature;BME280_humidity;BME280_pressure;Samples;Min_cycle;Max_cycle;Signal;HPM_P1;HPM_P2
2021/09/15 00:01:18;;;;;;;0.00;0.00;;;;;;;;;;5080793;28;20263;-72
2021/09/15 00:03:45;;;;;;;0.00;0.00;;;;;;;;;;5076808;28;20284;-73
2021/09/15 00:06:12;;;;;;;0.00;0.00;;;;;;;;;;5072339;28;20202;-72
2021/09/15 00:08:40;;;;;;;0.00;0.00;;;;;;;;;;5072091;28;20198;-73
2021/09/15 00:11:08;;;;;;;0.00;0.00;;;;;;;;;;5072265;28;20296;-73
2021/09/15 00:13:37;;;;;;;0.00;0.00;;;;;;;;;;5070091;28;20206;-74
2021/09/15 00:16:05;;;;;;;0.00;0.00;;;;;;;;;;5069327;28;20218;-73
2021/09/15 00:18:32;;;;;;;0.00;0.00;;;;;;;;;;5074715;28;20674;-71
2021/09/15 00:21:09;;;;;;;0.00;0.00;;;;;;;;;;5076100;28;20676;-71
2021/09/15 00:23:41;;;;;;;0.00;0.00;;;;;;;;;;5080145;28;21201;-74
2021/09/15 00:26:10;;;;;;;0.00;0.00;;;;;;;;;;5077695;28;20598;-73
2021/09/15 00:28:39;;;;;;;0.00;0.00;;;;;;;;;;5078516;28;20203;-72
2021/09/15 00:33:55;;;;;;;0.00;0.00;;;;;;;;;;5077021;28;20268;-72
2021/09/15 00:36:22;;;;;;;0.00;0.00;;;;;;;;;;5069140;28;20204;-72
2021/09/15 00:38:49;;;;;;;0.00;0.00;;;;;;;;;;5070290;28;20216;-72
2021/09/15 00:41:17;;;;;;;0.00;0.00;;;;;;;;;;5071697;28;20207;-72
2021/09/15 00:43:58;;;;;;;0.00;0.00;;;;;;;;;;5069891;28;20695;-72
2021/09/15 00:46:25;;;;;;;0.00;0.00;;;;;;;;;;5071598;28;20218;-71
2021/09/15 00:48:59;;;;;;;0.00;0.00;;;;;;;;;;5070587;28;20741;-71
2021/09/15 00:51:29;;;;;;;0.00;0.00;;;;;;;;;;5075747;28;20199;-72
2021/09/15 00:53:57;;;;;;;0.00;0.00;;;;;;;;;;5072535;28;20689;-71
2021/09/15 00:56:25;;;;;;;0.00;0.00;;;;;;;;;;5068057;28;20213;-72
2021/09/15 00:58:52;;;;;;;0.00;0.00;;;;;;;;;;5070935;28;20662;-72
2021/09/15 01:01:21;;;;;;;0.00;0.00;;;;;;;;;;5071376;28;20190;-72
2021/09/15 01:03:49;;;;;;;0.00;0.00;;;;;;;;;;5069382;28;20737;-72
2021/09/15 01:06:16;;;;;;;0.00;0.00;;;;;;;;;;5072042;28;20210;-72
2021/09/15 01:08:43;;;;;;;0.00;0.00;;;;;;;;;;5070655;28;20214;-75
2021/09/15 01:11:11;;;;;;;0.00;0.00;;;;;;;;;;5073850;28;20202;-72
2021/09/15 01:13:39;;;;;;;0.00;0.00;;;;;;;;;;5070650;28;20691;-72
2021/09/15 01:16:10;;;;;;;0.00;0.00;;;;;;;;;;5069164;28;20690;-72
2021/09/15 01:18:50;;;;;;;0.00;0.00;;;;;;;;;;5078147;28;20263;-71
2021/09/15 01:21:31;;;;;;;0.00;0.00;;;;;;;;;;5074580;28;20207;-71
2021/09/15 01:23:59;;;;;;;0.00;0.00;;;;;;;;;;5068952;28;20218;-76
2021/09/15 01:26:33;;;;;;;0.00;0.00;;;;;;;;;;5069415;28;20202;-72
2021/09/15 01:29:01;;;;;;;0.00;0.00;;;;;;;;;;5076917;28;20209;-72
2021/09/15 01:31:28;;;;;;;0.00;0.00;;;;;;;;;;5069289;28;20207;-72
2021/09/15 01:33:56;;;;;;;0.00;0.00;;;;;;;;;;5070729;28;21862;-73
2021/09/15 01:36:24;;;;;;;0.00;0.00;;;;;;;;;;5071665;28;20199;-74
2021/09/15 01:38:52;;;;;;;0.00;0.00;;;;;;;;;;5071115;28;20214;-71
2021/09/15 01:41:19;;;;;;;0.00;0.00;;;;;;;;;;5070153;28;20206;-73
2021/09/15 01:43:51;;;;;;;0.00;0.00;;;;;;;;;;5070816;28;20226;-73
2021/09/15 01:46:18;;;;;;;0.00;0.00;;;;;;;;;;5069923;28;20198;-72
2021/09/15 01:48:46;;;;;;;0.00;0.00;;;;;;;;;;5071635;28;20233;-73
2021/09/15 01:51:17;;;;;;;0.00;0.00;;;;;;;;;;5072256;28;20207;-72
2021/09/15 01:53:58;;;;;;;0.00;0.00;;;;;;;;;;5073994;28;20212;-72
2021/09/15 01:56:25;;;;;;;0.00;0.00;;;;;;;;;;5068756;28;20194;-72
2021/09/15 01:58:53;;;;;;;0.00;0.00;;;;;;;;;;5071820;28;20263;-73
2021/09/15 02:01:34;;;;;;;0.00;0.00;;;;;;;;;;5073077;28;20199;-72
2021/09/15 02:04:01;;;;;;;0.00;0.00;;;;;;;;;;5069904;28;20214;-72
2021/09/15 02:06:29;;;;;;;0.00;0.00;;;;;;;;;;5069794;28;20202;-74
2021/09/15 02:08:57;;;;;;;0.00;0.00;;;;;;;;;;5070396;28;20199;-73
2021/09/15 02:11:25;;;;;;;0.00;0.00;;;;;;;;;;5067242;28;20190;-72
2021/09/15 02:13:53;;;;;;;0.00;0.00;;;;;;;;;;5070591;28;20252;-71
2021/09/15 02:16:20;;;;;;;0.00;0.00;;;;;;;;;;5067167;28;20209;-72
2021/09/15 02:18:47;;;;;;;0.00;0.00;;;;;;;;;;5067705;28;20572;-72
2021/09/15 02:21:15;;;;;;;0.00;0.00;;;;;;;;;;5068629;28;20247;-72
2021/09/15 02:23:43;;;;;;;0.00;0.00;;;;;;;;;;5068379;28;20268;-72
2021/09/15 02:26:26;;;;;;;0.00;0.00;;;;;;;;;;5067874;28;20671;-73
2021/09/15 02:28:56;;;;;;;0.00;0.00;;;;;;;;;;5077790;28;20205;-71
2021/09/15 02:31:26;;;;;;;0.00;0.00;;;;;;;;;;5076576;28;20205;-72
2021/09/15 02:33:53;;;;;;;0.00;0.00;;;;;;;;;;5056773;28;20234;-71
2021/09/15 02:36:21;;;;;;;0.00;0.00;;;;;;;;;;5075236;28;20207;-72
2021/09/15 02:38:49;;;;;;;0.00;0.00;;;;;;;;;;5074791;28;20783;-72
2021/09/15 02:41:32;;;;;;;0.00;0.00;;;;;;;;;;5076614;28;20213;-71
2021/09/15 02:44:00;;;;;;;0.00;0.00;;;;;;;;;;5076794;28;20280;-75
2021/09/15 02:46:50;;;;;;;0.00;0.00;;;;;;;;;;5074652;28;20202;-73
2021/09/15 02:49:30;;;;;;;0.00;0.00;;;;;;;;;;5076790;28;20232;-72
2021/09/15 02:52:02;;;;;;;0.00;0.00;;;;;;;;;;5055974;28;20219;-73
2021/09/15 02:54:51;;;;;;;0.00;0.00;;;;;;;;;;5057550;28;20675;-71
2021/09/15 02:57:19;;;;;;;0.00;0.00;;;;;;;;;;5074436;28;20214;-70
2021/09/15 02:59:47;;;;;;;0.00;0.00;;;;;;;;;;5076869;28;20199;-71
2021/09/15 03:02:17;;;;;;;0.00;0.00;;;;;;;;;;5074957;28;21135;-71
2021/09/15 03:04:47;;;;;;;0.00;0.00;;;;;;;;;;5073981;28;20334;-71
2021/09/15 03:07:19;;;;;;;0.00;0.00;;;;;;;;;;5058944;28;20737;-71
2021/09/15 03:09:49;;;;;;;0.00;0.00;;;;;;;;;;5075024;28;20259;-73
2021/09/15 03:12:17;;;;;;;0.00;0.00;;;;;;;;;;5074980;28;20258;-71
2021/09/15 03:14:50;;;;;;;0.00;0.00;;;;;;;;;;5078035;28;20199;-71
2021/09/15 03:17:17;;;;;;;0.00;0.00;;;;;;;;;;5072477;28;20199;-72
2021/09/15 03:19:44;;;;;;;0.00;0.00;;;;;;;;;;5067823;28;20685;-71
2021/09/15 03:22:12;;;;;;;0.00;0.00;;;;;;;;;;5069438;28;20214;-72
2021/09/15 03:24:39;;;;;;;0.00;0.00;;;;;;;;;;5070341;28;20247;-72
2021/09/15 03:27:07;;;;;;;0.00;0.00;;;;;;;;;;5066650;28;20206;-70
2021/09/15 03:29:34;;;;;;;0.00;0.00;;;;;;;;;;5067395;28;20207;-71
2021/09/15 03:32:11;;;;;;;0.00;0.00;;;;;;;;;;5075590;28;20194;-71
2021/09/15 03:34:38;;;;;;;0.00;0.00;;;;;;;;;;5076055;28;20224;-71
2021/09/15 03:37:08;;;;;;;0.00;0.00;;;;;;;;;;5075432;28;20198;-71
2021/09/15 03:39:36;;;;;;;0.00;0.00;;;;;;;;;;5075518;28;20683;-71
2021/09/15 03:42:03;;;;;;;0.00;0.00;;;;;;;;;;5067064;28;20209;-74
2021/09/15 03:44:32;;;;;;;0.00;0.00;;;;;;;;;;5067122;28;20236;-74
2021/09/15 03:47:02;;;;;;;0.00;0.00;;;;;;;;;;5070854;28;20298;-72
2021/09/15 03:49:31;;;;;;;0.00;0.00;;;;;;;;;;5071910;28;20659;-72
2021/09/15 03:52:08;;;;;;;0.00;0.00;;;;;;;;;;5078612;28;20201;-71
2021/09/15 03:54:38;;;;;;;0.00;0.00;;;;;;;;;;5081208;28;20210;-73
2021/09/15 03:57:05;;;;;;;0.00;0.00;;;;;;;;;;5080071;28;20199;-72
2021/09/15 03:59:33;;;;;;;0.00;0.00;;;;;;;;;;5075650;28;20207;-72
2021/09/15 04:02:05;;;;;;;0.00;0.00;;;;;;;;;;5078023;28;20563;-72
2021/09/15 04:04:34;;;;;;;0.00;0.00;;;;;;;;;;5072366;28;20226;-72
2021/09/15 04:07:03;;;;;;;0.00;0.00;;;;;;;;;;5076713;28;20194;-72
2021/09/15 04:09:31;;;;;;;0.00;0.00;;;;;;;;;;5073485;28;20200;-71
2021/09/15 04:11:58;;;;;;;0.00;0.00;;;;;;;;;;5070382;28;20203;-72
2021/09/15 04:14:47;;;;;;;0.00;0.00;;;;;;;;;;5074018;28;20586;-73
2021/09/15 04:17:14;;;;;;;0.00;0.00;;;;;;;;;;5082074;28;20572;-72
2021/09/15 04:19:43;;;;;;;0.00;0.00;;;;;;;;;;5075767;28;20206;-72
2021/09/15 04:22:16;;;;;;;0.00;0.00;;;;;;;;;;5072447;28;20218;-71
2021/09/15 04:32:58;;;;;;;0.00;0.00;;;;;;;;;;5070493;28;20288;-71
2021/09/15 04:35:27;;;;;;;0.00;0.00;;;;;;;;;;5072012;28;20210;-71
2021/09/15 04:37:54;;;;;;;0.00;0.00;;;;;;;;;;5072165;28;20747;-72
2021/09/15 04:40:22;;;;;;;0.00;0.00;;;;;;;;;;5069888;28;20226;-72
2021/09/15 04:42:49;;;;;;;0.00;0.00;;;;;;;;;;5070836;28;20209;-71
2021/09/15 04:45:18;;;;;;;0.00;0.00;;;;;;;;;;5072602;28;20229;-72
2021/09/15 04:47:45;;;;;;;0.00;0.00;;;;;;;;;;5082528;28;20234;-72
2021/09/15 04:50:13;;;;;;;0.00;0.00;;;;;;;;;;5093584;28;20202;-71
2021/09/15 04:52:42;;;;;;;0.00;0.00;;;;;;;;;;5096584;28;20202;-72
2021/09/15 04:55:09;;;;;;;0.00;0.00;;;;;;;;;;5079787;28;20205;-71
2021/09/15 04:57:37;;;;;;;0.00;0.00;;;;;;;;;;5078521;28;20240;-71
2021/09/15 05:00:05;;;;;;;0.00;0.00;;;;;;;;;;5078108;28;20195;-72
2021/09/15 05:02:32;;;;;;;0.00;0.00;;;;;;;;;;5075800;28;20203;-72
2021/09/15 05:05:00;;;;;;;0.00;0.00;;;;;;;;;;5078588;28;20238;-71
2021/09/15 05:07:27;;;;;;;0.00;0.00;;;;;;;;;;5078961;28;20218;-71
2021/09/15 05:09:56;;;;;;;0.00;0.00;;;;;;;;;;5078999;28;20210;-72
2021/09/15 05:12:23;;;;;;;0.00;0.00;;;;;;;;;;5080010;28;20237;-73
2021/09/15 05:14:51;;;;;;;0.00;0.00;;;;;;;;;;5077489;28;20210;-72
2021/09/15 05:17:18;;;;;;;0.00;0.00;;;;;;;;;;5078823;28;20211;-72
2021/09/15 05:19:45;;;;;;;0.00;0.00;;;;;;;;;;5077842;28;20228;-71
2021/09/15 05:22:13;;;;;;;0.00;0.00;;;;;;;;;;5078004;28;20214;-72
2021/09/15 05:24:40;;;;;;;0.00;0.00;;;;;;;;;;5078298;28;20234;-72
2021/09/15 05:27:09;;;;;;;0.00;0.00;;;;;;;;;;5077388;28;20570;-72
2021/09/15 05:29:37;;;;;;;0.00;0.00;;;;;;;;;;5078812;28;20582;-71
2021/09/15 05:32:04;;;;;;;0.00;0.00;;;;;;;;;;5076137;28;20198;-71
2021/09/15 05:34:32;;;;;;;0.00;0.00;;;;;;;;;;5076774;28;20207;-72
2021/09/15 05:36:59;;;;;;;0.00;0.00;;;;;;;;;;5078324;28;20214;-71
2021/09/15 05:39:27;;;;;;;0.00;0.00;;;;;;;;;;5079718;28;20213;-71
2021/09/15 05:41:54;;;;;;;0.00;0.00;;;;;;;;;;5078434;28;20212;-72
2021/09/15 05:44:23;;;;;;;0.00;0.00;;;;;;;;;;5079389;28;20237;-71
2021/09/15 05:46:50;;;;;;;0.00;0.00;;;;;;;;;;5076722;28;20207;-72
2021/09/15 05:49:18;;;;;;;0.00;0.00;;;;;;;;;;5077037;28;20241;-71
2021/09/15 05:51:45;;;;;;;0.00;0.00;;;;;;;;;;5076808;28;20748;-73
2021/09/15 05:54:12;;;;;;;0.00;0.00;;;;;;;;;;5078860;28;20717;-71
2021/09/15 05:56:41;;;;;;;0.00;0.00;;;;;;;;;;5077235;28;20210;-72
2021/09/15 05:59:08;;;;;;;0.00;0.00;;;;;;;;;;5076179;28;20203;-71
2021/09/15 06:01:37;;;;;;;0.00;0.00;;;;;;;;;;5076690;28;20559;-71
2021/09/15 06:04:04;;;;;;;0.00;0.00;;;;;;;;;;5077219;28;20239;-72
2021/09/15 06:06:32;;;;;;;0.00;0.00;;;;;;;;;;5079126;28;20234;-72
2021/09/15 06:08:59;;;;;;;0.00;0.00;;;;;;;;;;5078075;28;20210;-71
2021/09/15 06:11:27;;;;;;;0.00;0.00;;;;;;;;;;5076832;28;20291;-72
2021/09/15 06:13:55;;;;;;;0.00;0.00;;;;;;;;;;5075933;28;20206;-71
2021/09/15 06:16:22;;;;;;;0.00;0.00;;;;;;;;;;5077126;28;20679;-71
2021/09/15 06:18:51;;;;;;;0.00;0.00;;;;;;;;;;5077450;28;20198;-71
2021/09/15 06:21:19;;;;;;;0.00;0.00;;;;;;;;;;5076148;28;20233;-72
2021/09/15 06:23:46;;;;;;;0.00;0.00;;;;;;;;;;5075886;28;20194;-71
2021/09/15 06:26:14;;;;;;;0.00;0.00;;;;;;;;;;5076770;28;20210;-74
2021/09/15 06:28:42;;;;;;;0.00;0.00;;;;;;;;;;5077036;28;20195;-71
2021/09/15 06:31:09;;;;;;;0.00;0.00;;;;;;;;;;5077068;28;20210;-71
2021/09/15 06:33:38;;;;;;;0.00;0.00;;;;;;;;;;5076853;28;20229;-71
2021/09/15 06:36:07;;;;;;;0.00;0.00;;;;;;;;;;5077479;28;20201;-71
2021/09/15 06:38:35;;;;;;;0.00;0.00;;;;;;;;;;5077876;28;20218;-71
2021/09/15 06:41:03;;;;;;;0.00;0.00;;;;;;;;;;5077238;28;20214;-72
2021/09/15 06:43:30;;;;;;;0.00;0.00;;;;;;;;;;5077667;28;20210;-72
2021/09/15 06:45:58;;;;;;;0.00;0.00;;;;;;;;;;5075391;28;20237;-72
2021/09/15 06:48:25;;;;;;;0.00;0.00;;;;;;;;;;5076715;28;20229;-72
2021/09/15 06:50:52;;;;;;;0.00;0.00;;;;;;;;;;5076650;28;20198;-72
2021/09/15 06:53:21;;;;;;;0.00;0.00;;;;;;;;;;5076646;28;20202;-72
2021/09/15 06:55:49;;;;;;;0.00;0.00;;;;;;;;;;5077517;28;20198;-73
2021/09/15 06:58:16;;;;;;;0.00;0.00;;;;;;;;;;5076616;28;20220;-70
2021/09/15 07:00:44;;;;;;;0.00;0.00;;;;;;;;;;5076847;28;20695;-73
2021/09/15 07:03:11;;;;;;;0.00;0.00;;;;;;;;;;5076243;28;20571;-72
2021/09/15 07:05:38;;;;;;;0.00;0.00;;;;;;;;;;5077995;28;20234;-69
2021/09/15 07:08:07;;;;;;;0.00;0.00;;;;;;;;;;5086831;28;20194;-70
2021/09/15 07:10:37;;;;;;;0.00;0.00;;;;;;;;;;5086056;28;20712;-69
2021/09/15 07:13:04;;;;;;;0.00;0.00;;;;;;;;;;5088443;28;20662;-70
2021/09/15 07:15:32;;;;;;;0.00;0.00;;;;;;;;;;5089603;28;20202;-69
2021/09/15 07:17:59;;;;;;;0.00;0.00;;;;;;;;;;5088259;28;20198;-69
2021/09/15 07:20:27;;;;;;;0.00;0.00;;;;;;;;;;5086519;28;20198;-71
2021/09/15 07:22:54;;;;;;;0.00;0.00;;;;;;;;;;5087653;28;20194;-69
2021/09/15 07:25:22;;;;;;;0.00;0.00;;;;;;;;;;5090697;28;20233;-69
2021/09/15 07:27:51;;;;;;;0.00;0.00;;;;;;;;;;5091945;28;20202;-69
2021/09/15 07:30:18;;;;;;;0.00;0.00;;;;;;;;;;5081057;28;20548;-70
2021/09/15 07:32:45;;;;;;;0.00;0.00;;;;;;;;;;5091474;28;20206;-69
2021/09/15 07:35:13;;;;;;;0.00;0.00;;;;;;;;;;5084867;28;20218;-69
2021/09/15 07:37:41;;;;;;;0.00;0.00;;;;;;;;;;5089458;28;20202;-69
2021/09/15 07:40:09;;;;;;;0.00;0.00;;;;;;;;;;5093054;28;20645;-69
2021/09/15 07:42:37;;;;;;;0.00;0.00;;;;;;;;;;5090076;28;20194;-69
2021/09/15 07:45:07;;;;;;;0.00;0.00;;;;;;;;;;5087369;28;20231;-75
2021/09/15 07:47:34;;;;;;;0.00;0.00;;;;;;;;;;5090787;28;20198;-71
2021/09/15 07:50:02;;;;;;;0.00;0.00;;;;;;;;;;5089280;28;20698;-70
2021/09/15 07:52:30;;;;;;;0.00;0.00;;;;;;;;;;5086553;28;20194;-69
2021/09/15 07:54:57;;;;;;;0.00;0.00;;;;;;;;;;5093119;28;20208;-68
2021/09/15 07:57:25;;;;;;;0.00;0.00;;;;;;;;;;5093017;28;20312;-69
2021/09/15 07:59:52;;;;;;;0.00;0.00;;;;;;;;;;5090862;28;20213;-70
2021/09/15 08:02:21;;;;;;;0.00;0.00;;;;;;;;;;5089707;28;20202;-68
2021/09/15 08:04:48;;;;;;;0.00;0.00;;;;;;;;;;5089635;28;20683;-69
2021/09/15 08:07:16;;;;;;;0.00;0.00;;;;;;;;;;5090849;28;20252;-68
2021/09/15 08:09:43;;;;;;;0.00;0.00;;;;;;;;;;5092155;28;20210;-70
2021/09/15 08:12:11;;;;;;;0.00;0.00;;;;;;;;;;5090713;28;20199;-69
2021/09/15 08:14:38;;;;;;;0.00;0.00;;;;;;;;;;5089751;28;20388;-69
2021/09/15 08:17:06;;;;;;;0.00;0.00;;;;;;;;;;5089761;28;20191;-69
2021/09/15 08:19:35;;;;;;;0.00;0.00;;;;;;;;;;5090514;28;20202;-69
2021/09/15 08:22:02;;;;;;;0.00;0.00;;;;;;;;;;5088763;28;20207;-68
2021/09/15 08:24:30;;;;;;;0.00;0.00;;;;;;;;;;5088421;28;20663;-71
2021/09/15 08:26:57;;;;;;;0.00;0.00;;;;;;;;;;5089523;28;20210;-70
2021/09/15 08:29:24;;;;;;;0.00;0.00;;;;;;;;;;5091045;28;20209;-69
2021/09/15 08:31:52;;;;;;;0.00;0.00;;;;;;;;;;5090922;28;20652;-68
2021/09/15 08:34:19;;;;;;;0.00;0.00;;;;;;;;;;5089577;28;20202;-69
2021/09/15 08:36:48;;;;;;;0.00;0.00;;;;;;;;;;5087101;28;20202;-69
2021/09/15 08:39:15;;;;;;;0.00;0.00;;;;;;;;;;5091992;28;20210;-68
2021/09/15 08:41:43;;;;;;;0.00;0.00;;;;;;;;;;5091157;28;21062;-69
2021/09/15 08:44:10;;;;;;;0.00;0.00;;;;;;;;;;5081875;28;20210;-70
2021/09/15 08:46:38;;;;;;;0.00;0.00;;;;;;;;;;5088148;28;20242;-68
2021/09/15 08:49:06;;;;;;;0.00;0.00;;;;;;;;;;5090001;28;20337;-69
2021/09/15 08:51:35;;;;;;;0.00;0.00;;;;;;;;;;5086028;28;20944;-70
2021/09/15 08:54:04;;;;;;;0.00;0.00;;;;;;;;;;5083109;28;20205;-69
2021/09/15 08:56:32;;;;;;;0.00;0.00;;;;;;;;;;5083482;28;20194;-69
2021/09/15 08:58:59;;;;;;;0.00;0.00;;;;;;;;;;5082539;28;20202;-70
2021/09/15 09:01:28;;;;;;;0.00;0.00;;;;;;;;;;5085656;28;20210;-69
2021/09/15 09:03:56;;;;;;;0.00;0.00;;;;;;;;;;5087060;28;20204;-71
2021/09/15 09:06:25;;;;;;;0.00;0.00;;;;;;;;;;5084909;28;20701;-71
2021/09/15 09:08:55;;;;;;;0.00;0.00;;;;;;;;;;5084061;28;20788;-70
2021/09/15 09:11:26;;;;;;;0.00;0.00;;;;;;;;;;5083461;28;20209;-69
2021/09/15 09:13:54;;;;;;;0.00;0.00;;;;;;;;;;5082472;28;20217;-69
2021/09/15 09:16:22;;;;;;;0.00;0.00;;;;;;;;;;5086165;28;20202;-70
2021/09/15 09:18:56;;;;;;;0.00;0.00;;;;;;;;;;5087098;28;20204;-69
2021/09/15 09:21:26;;;;;;;0.00;0.00;;;;;;;;;;5084101;28;20290;-72
2021/09/15 09:23:56;;;;;;;0.00;0.00;;;;;;;;;;5082268;28;21830;-69
2021/09/15 09:26:25;;;;;;;0.00;0.00;;;;;;;;;;5072350;28;20272;-71
2021/09/15 09:28:52;;;;;;;0.00;0.00;;;;;;;;;;5074044;28;20553;-69
2021/09/15 09:31:20;;;;;;;0.00;0.00;;;;;;;;;;5083891;28;20285;-67
2021/09/15 09:33:48;;;;;;;0.00;0.00;;;;;;;;;;5082643;28;20210;-72
2021/09/15 09:36:15;;;;;;;0.00;0.00;;;;;;;;;;5087049;28;20218;-67
2021/09/15 09:38:44;;;;;;;0.00;0.00;;;;;;;;;;5081878;28;20695;-71
2021/09/15 09:41:13;;;;;;;0.00;0.00;;;;;;;;;;5086455;28;20213;-69
2021/09/15 09:43:43;;;;;;;0.00;0.00;;;;;;;;;;5082505;28;20214;-69
2021/09/15 09:46:11;;;;;;;0.00;0.00;;;;;;;;;;5080219;28;20222;-73
2021/09/15 09:48:43;;;;;;;0.00;0.00;;;;;;;;;;5084195;28;20241;-71
2021/09/15 09:51:30;;;;;;;0.00;0.00;;;;;;;;;;5083685;28;20210;-73
2021/09/15 09:54:07;;;;;;;0.00;0.00;;;;;;;;;;5079771;28;20206;-71
2021/09/15 09:56:36;;;;;;;0.00;0.00;;;;;;;;;;5081722;28;20211;-72
2021/09/15 09:59:05;;;;;;;0.00;0.00;;;;;;;;;;5081664;28;20203;-73
2021/09/15 10:01:33;;;;;;;0.00;0.00;;;;;;;;;;5082173;28;20359;-70
2021/09/15 10:04:01;;;;;;;0.00;0.00;;;;;;;;;;5081463;28;20213;-70
2021/09/15 10:06:29;;;;;;;0.00;0.00;;;;;;;;;;5083167;28;20741;-72
2021/09/15 10:08:56;;;;;;;0.00;0.00;;;;;;;;;;5085430;28;20208;-71
2021/09/15 10:11:24;;;;;;;0.00;0.00;;;;;;;;;;5088112;28;20210;-71
2021/09/15 10:13:52;;;;;;;0.00;0.00;;;;;;;;;;5089692;28;20567;-71
2021/09/15 10:16:23;;;;;;;0.00;0.00;;;;;;;;;;5089952;28;20202;-71
2021/09/15 10:18:54;;;;;;;0.00;0.00;;;;;;;;;;5087467;28;20207;-71
2021/09/15 10:21:26;;;;;;;0.00;0.00;;;;;;;;;;5090169;28;20202;-73
2021/09/15 10:23:53;;;;;;;0.00;0.00;;;;;;;;;;5089363;28;20488;-71
2021/09/15 10:26:41;;;;;;;0.00;0.00;;;;;;;;;;5087453;28;20658;-71
2021/09/15 10:29:24;;;;;;;0.00;0.00;;;;;;;;;;5082980;28;20268;-72
2021/09/15 10:31:58;;;;;;;0.00;0.00;;;;;;;;;;5089256;28;20220;-73
2021/09/15 10:34:46;;;;;;;0.00;0.00;;;;;;;;;;5089252;28;20202;-70
2021/09/15 10:37:31;;;;;;;0.00;0.00;;;;;;;;;;5078081;28;20202;-73
2021/09/15 10:40:00;;;;;;;0.00;0.00;;;;;;;;;;5076898;28;20206;-73
2021/09/15 10:42:38;;;;;;;0.00;0.00;;;;;;;;;;5088057;28;20260;-73
2021/09/15 10:45:15;;;;;;;0.00;0.00;;;;;;;;;;5082262;28;20205;-72
2021/09/15 10:47:45;;;;;;;0.00;0.00;;;;;;;;;;5085114;28;20241;-70
2021/09/15 10:50:13;;;;;;;0.00;0.00;;;;;;;;;;5075251;28;20202;-71
2021/09/15 10:52:42;;;;;;;0.00;0.00;;;;;;;;;;5089965;28;20191;-69
2021/09/15 10:55:16;;;;;;;0.00;0.00;;;;;;;;;;5088779;28;20209;-70
2021/09/15 10:57:45;;;;;;;0.00;0.00;;;;;;;;;;5089264;28;20232;-71
2021/09/15 11:00:30;;;;;;;0.00;0.00;;;;;;;;;;5090466;28;20198;-70
2021/09/15 11:03:19;;;;;;;0.00;0.00;;;;;;;;;;5086705;28;20194;-70
2021/09/15 11:05:47;;;;;;;0.00;0.00;;;;;;;;;;5088049;28;20690;-71
2021/09/15 11:08:21;;;;;;;0.00;0.00;;;;;;;;;;5090236;28;20201;-69
2021/09/15 11:10:49;;;;;;;0.00;0.00;;;;;;;;;;5088785;28;20205;-69
2021/09/15 11:13:17;;;;;;;0.00;0.00;;;;;;;;;;5087608;28;20199;-70
2021/09/15 11:15:45;;;;;;;0.00;0.00;;;;;;;;;;5087896;28;20194;-71
2021/09/15 11:18:24;;;;;;;0.00;0.00;;;;;;;;;;5088417;28;20202;-70
2021/09/15 11:20:55;;;;;;;0.00;0.00;;;;;;;;;;5086152;28;20221;-70
2021/09/15 11:23:25;;;;;;;0.00;0.00;;;;;;;;;;5087732;28;20237;-69
2021/09/15 11:25:53;;;;;;;0.00;0.00;;;;;;;;;;5087749;28;20301;-69
2021/09/15 11:28:23;;;;;;;0.00;0.00;;;;;;;;;;5087983;28;20293;-69
2021/09/15 11:31:00;;;;;;;0.00;0.00;;;;;;;;;;5088348;28;20202;-70
2021/09/15 11:33:29;;;;;;;0.00;0.00;;;;;;;;;;5087574;28;20201;-72
2021/09/15 11:35:58;;;;;;;0.00;0.00;;;;;;;;;;5087619;28;20690;-70
2021/09/15 11:38:26;;;;;;;0.00;0.00;;;;;;;;;;5088269;28;20229;-69
2021/09/15 11:40:54;;;;;;;0.00;0.00;;;;;;;;;;5093895;28;20204;-70
2021/09/15 11:43:22;;;;;;;0.00;0.00;;;;;;;;;;5086507;28;20213;-69
2021/09/15 11:45:50;;;;;;;0.00;0.00;;;;;;;;;;5081863;28;20260;-70
2021/09/15 11:48:26;;;;;;;0.00;0.00;;;;;;;;;;5082602;28;20226;-72
2021/09/15 11:50:55;;;;;;;0.00;0.00;;;;;;;;;;5082763;28;20193;-69
2021/09/15 11:53:24;;;;;;;0.00;0.00;;;;;;;;;;5083547;28;20559;-69
2021/09/15 11:55:59;;;;;;;0.00;0.00;;;;;;;;;;5081529;28;20206;-69
2021/09/15 11:58:26;;;;;;;0.00;0.00;;;;;;;;;;5083905;28;20564;-69
2021/09/15 12:00:55;;;;;;;0.00;0.00;;;;;;;;;;5079187;28;20210;-70
2021/09/15 12:03:25;;;;;;;0.00;0.00;;;;;;;;;;5076257;28;20198;-70
2021/09/15 12:05:55;;;;;;;0.00;0.00;;;;;;;;;;5082697;28;20234;-70
2021/09/15 12:08:23;;;;;;;0.00;0.00;;;;;;;;;;5081961;28;20206;-70
2021/09/15 12:10:50;;;;;;;0.57;0.10;;;;;;;;;;5082220;28;20205;-69
2021/09/15 12:13:18;;;;;;;0.17;0.17;;;;;;;;;;5087640;28;20211;-71
2021/09/15 12:15:47;;;;;;;0.00;0.00;;;;;;;;;;5083416;28;20687;-71
2021/09/15 12:18:16;;;;;;;0.00;0.00;;;;;;;;;;5085900;28;20199;-70
2021/09/15 12:20:46;;;;;;;0.00;0.00;;;;;;;;;;5091349;28;20206;-71
2021/09/15 12:23:16;;;;;;;0.00;0.00;;;;;;;;;;5085084;28;20230;-70
2021/09/15 12:25:52;;;;;;;0.00;0.00;;;;;;;;;;5085335;28;20202;-72
2021/09/15 12:28:24;;;;;;;0.00;0.00;;;;;;;;;;5085122;28;20229;-70
2021/09/15 12:30:51;;;;;;;0.00;0.00;;;;;;;;;;5083019;28;20672;-70
2021/09/15 12:33:23;;;;;;;0.00;0.00;;;;;;;;;;5080468;28;20202;-69
2021/09/15 12:36:08;;;;;;;0.00;0.00;;;;;;;;;;5084449;28;20222;-71
2021/09/15 12:38:46;;;;;;;0.00;0.00;;;;;;;;;;5082345;28;20610;-71
2021/09/15 12:41:14;;;;;;;0.00;0.00;;;;;;;;;;5085852;28;20674;-74
2021/09/15 12:43:41;;;;;;;0.00;0.00;;;;;;;;;;5080134;28;20213;-71
2021/09/15 12:46:22;;;;;;;0.00;0.00;;;;;;;;;;5081664;28;20214;-71
2021/09/15 12:48:49;;;;;;;0.00;0.00;;;;;;;;;;5083803;28;20230;-70
2021/09/15 12:51:18;;;;;;;0.00;0.00;;;;;;;;;;5086512;28;20216;-71
2021/09/15 12:53:49;;;;;;;0.00;0.00;;;;;;;;;;5090965;28;20210;-71
2021/09/15 12:56:17;;;;;;;0.00;0.00;;;;;;;;;;5091722;28;20206;-70
2021/09/15 12:58:45;;;;;;;0.00;0.00;;;;;;;;;;5090350;28;20202;-70
2021/09/15 13:01:20;;;;;;;0.00;0.00;;;;;;;;;;5084570;28;20241;-70
2021/09/15 13:03:51;;;;;;;1.75;0.05;;;;;;;;;;5084239;28;21134;-70
2021/09/15 13:06:19;;;;;;;0.00;0.00;;;;;;;;;;5081413;28;20225;-70
2021/09/15 13:08:49;;;;;;;0.00;0.00;;;;;;;;;;5083651;28;20193;-71
2021/09/15 13:11:16;;;;;;;0.00;0.00;;;;;;;;;;5082097;28;20202;-70
2021/09/15 13:13:44;;;;;;;0.00;0.00;;;;;;;;;;5083820;28;20564;-70
2021/09/15 13:16:12;;;;;;;0.00;0.00;;;;;;;;;;5085902;28;20205;-71
2021/09/15 13:18:41;;;;;;;0.00;0.00;;;;;;;;;;5084274;28;20202;-72
2021/09/15 13:21:08;;;;;;;0.00;0.00;;;;;;;;;;5083075;28;20679;-71
2021/09/15 13:23:35;;;;;;;0.00;0.00;;;;;;;;;;5081605;28;20205;-71
2021/09/15 13:26:04;;;;;;;0.00;0.00;;;;;;;;;;5084734;28;20309;-71
2021/09/15 13:28:33;;;;;;;0.00;0.00;;;;;;;;;;5081664;28;20222;-70
2021/09/15 13:31:00;;;;;;;0.00;0.00;;;;;;;;;;5082126;28;20710;-71
2021/09/15 13:33:29;;;;;;;0.00;0.00;;;;;;;;;;5082550;28;20210;-74
2021/09/15 13:35:56;;;;;;;0.00;0.00;;;;;;;;;;5085924;28;20203;-72
2021/09/15 13:38:24;;;;;;;0.00;0.00;;;;;;;;;;5081143;28;20212;-74
2021/09/15 13:40:51;;;;;;;0.00;0.00;;;;;;;;;;5084418;28;20205;-72
2021/09/15 13:43:20;;;;;;;0.00;0.00;;;;;;;;;;5080950;28;20695;-72
2021/09/15 13:45:48;;;;;;;0.00;0.00;;;;;;;;;;5080733;28;20213;-72
2021/09/15 13:48:15;;;;;;;0.00;0.00;;;;;;;;;;5082922;28;20361;-72
2021/09/15 13:50:42;;;;;;;0.00;0.00;;;;;;;;;;5084963;28;20563;-72
2021/09/15 13:53:10;;;;;;;0.00;0.00;;;;;;;;;;5079521;28;20210;-72
2021/09/15 13:55:37;;;;;;;0.00;0.00;;;;;;;;;;5079748;28;20215;-71
2021/09/15 13:58:05;;;;;;;0.00;0.00;;;;;;;;;;5083451;28;20304;-72
2021/09/15 14:00:34;;;;;;;0.00;0.00;;;;;;;;;;5083429;28;20194;-69
2021/09/15 14:03:01;;;;;;;0.00;0.00;;;;;;;;;;5080590;28;20190;-73
2021/09/15 14:05:29;;;;;;;0.00;0.00;;;;;;;;;;5083746;28;20204;-71
2021/09/15 14:07:57;;;;;;;0.00;0.00;;;;;;;;;;5082734;28;20229;-73
2021/09/15 14:10:24;;;;;;;0.00;0.00;;;;;;;;;;5084421;28;20571;-72
2021/09/15 14:12:52;;;;;;;0.00;0.00;;;;;;;;;;5080476;28;20194;-73
2021/09/15 14:15:19;;;;;;;0.00;0.00;;;;;;;;;;5085059;28;20604;-74
2021/09/15 14:17:48;;;;;;;0.00;0.00;;;;;;;;;;5078695;28;20686;-71
2021/09/15 14:20:16;;;;;;;0.00;0.00;;;;;;;;;;5094365;28;20210;-71
2021/09/15 14:22:43;;;;;;;0.00;0.00;;;;;;;;;;5100492;28;20198;-71
2021/09/15 14:25:11;;;;;;;0.00;0.00;;;;;;;;;;5088054;28;20194;-72
2021/09/15 14:27:38;;;;;;;0.00;0.00;;;;;;;;;;5090263;28;20241;-72
2021/09/15 14:30:07;;;;;;;0.00;0.00;;;;;;;;;;5085943;28;20199;-72
2021/09/15 14:32:34;;;;;;;0.00;0.00;;;;;;;;;;5088719;28;20209;-71
2021/09/15 14:35:03;;;;;;;0.00;0.00;;;;;;;;;;5078907;28;20302;-75
2021/09/15 14:37:31;;;;;;;0.00;0.00;;;;;;;;;;5097928;28;20232;-68
2021/09/15 14:40:03;;;;;;;0.00;0.00;;;;;;;;;;5110691;28;20203;-68
2021/09/15 14:42:35;;;;;;;0.00;0.00;;;;;;;;;;5107994;28;20203;-70
2021/09/15 14:45:09;;;;;;;0.00;0.00;;;;;;;;;;5107131;28;20208;-67
2021/09/15 14:47:36;;;;;;;0.00;0.00;;;;;;;;;;5086825;28;20279;-69
2021/09/15 14:50:06;;;;;;;0.00;0.00;;;;;;;;;;5088718;28;20198;-70
2021/09/15 14:52:33;;;;;;;0.00;0.00;;;;;;;;;;5088487;28;20198;-72
2021/09/15 14:55:01;;;;;;;0.00;0.00;;;;;;;;;;5087270;28;20198;-69
2021/09/15 14:57:28;;;;;;;0.00;0.00;;;;;;;;;;5088152;28;20202;-72
2021/09/15 14:59:56;;;;;;;0.00;0.00;;;;;;;;;;5090313;28;20204;-72
2021/09/15 15:02:23;;;;;;;0.00;0.00;;;;;;;;;;5088326;28;20199;-73
2021/09/15 15:04:51;;;;;;;0.00;0.00;;;;;;;;;;5088273;28;20223;-71
2021/09/15 15:07:20;;;;;;;0.00;0.00;;;;;;;;;;5090472;28;20730;-71